Time;durP1;ratioP1;P1;durP2;ratioP2;P2;SDS_P1;SDS_P2;PMS_P1;PMS_P2;Temp;Humidity;BMP_temperature;BMP_pressure;BME280_temperature;BME280_humidity;BME280_pressure;Samples;Min_cycle;Max_cycle;Signal;HPM_P1;HPM_P2
2023/06/13 00:01:48;;;;;;;20.30;12.80;;;;;;;;;;5064292;28;20039;-79
2023/06/13 00:04:24;;;;;;;20.13;14.13;;;;;;;;;;5047610;28;20040;-79
2023/06/13 00:06:54;;;;;;;22.98;15.95;;;;;;;;;;5068017;28;20496;-78
2023/06/13 00:09:22;;;;;;;21.23;14.18;;;;;;;;;;5065540;28;20024;-77
2023/06/13 00:11:52;;;;;;;25.15;16.08;;;;;;;;;;5070708;28;20017;-77
2023/06/13 00:14:19;;;;;;;22.88;15.35;;;;;;;;;;5064118;28;20158;-77
2023/06/13 00:16:48;;;;;;;27.75;17.05;;;;;;;;;;5041475;28;20029;-78
2023/06/13 00:19:14;;;;;;;21.20;15.25;;;;;;;;;;5060842;28;20629;-77
2023/06/13 00:21:41;;;;;;;24.10;16.73;;;;;;;;;;5066900;28;20043;-78
2023/06/13 00:24:07;;;;;;;26.38;16.65;;;;;;;;;;5074659;28;20032;-77
2023/06/13 00:26:34;;;;;;;28.00;16.33;;;;;;;;;;5047982;28;20028;-79
2023/06/13 00:29:00;;;;;;;27.15;15.73;;;;;;;;;;5068399;28;20032;-79
2023/06/13 00:31:29;;;;;;;24.23;16.27;;;;;;;;;;5043990;28;20100;-79
2023/06/13 00:33:59;;;;;;;26.25;18.50;;;;;;;;;;5044968;28;20370;-79
2023/06/13 00:36:27;;;;;;;24.95;18.45;;;;;;;;;;5048629;28;20068;-79
2023/06/13 00:38:54;;;;;;;31.63;18.17;;;;;;;;;;5044657;28;20025;-79
2023/06/13 00:41:20;;;;;;;25.77;17.05;;;;;;;;;;5049322;28;20372;-79
2023/06/13 00:43:46;;;;;;;29.48;19.00;;;;;;;;;;5046601;28;20107;-80
2023/06/13 00:46:14;;;;;;;27.85;19.85;;;;;;;;;;5048674;28;20420;-79
2023/06/13 00:48:42;;;;;;;28.60;19.38;;;;;;;;;;5048318;28;20020;-79
2023/06/13 00:51:09;;;;;;;26.08;16.08;;;;;;;;;;5050236;28;20025;-79
2023/06/13 00:53:36;;;;;;;26.50;17.48;;;;;;;;;;5054874;28;20017;-79
2023/06/13 00:56:02;;;;;;;28.80;17.95;;;;;;;;;;5055616;28;20446;-80
2023/06/13 00:58:29;;;;;;;26.88;16.77;;;;;;;;;;5048681;28;20032;-79
2023/06/13 01:00:55;;;;;;;24.63;17.00;;;;;;;;;;5041053;28;20515;-79
2023/06/13 01:03:21;;;;;;;27.90;17.08;;;;;;;;;;5048580;28;20071;-78
2023/06/13 01:05:48;;;;;;;25.67;16.65;;;;;;;;;;5049597;28;20061;-80
2023/06/13 01:08:16;;;;;;;26.75;18.13;;;;;;;;;;5046500;28;20028;-80
2023/06/13 01:10:43;;;;;;;28.70;16.95;;;;;;;;;;5048835;28;20518;-79
2023/06/13 01:13:09;;;;;;;30.98;17.90;;;;;;;;;;5048316;28;20033;-80
2023/06/13 01:15:37;;;;;;;29.25;18.52;;;;;;;;;;5050471;28;20098;-79
2023/06/13 01:18:05;;;;;;;25.48;16.63;;;;;;;;;;5047673;28;20032;-79
2023/06/13 01:20:33;;;;;;;24.98;16.95;;;;;;;;;;5045636;28;20126;-79
2023/06/13 01:23:18;;;;;;;28.17;17.92;;;;;;;;;;5046662;28;20588;-79
2023/06/13 01:26:03;;;;;;;26.58;16.55;;;;;;;;;;5055288;28;20159;-79
2023/06/13 01:28:33;;;;;;;28.42;16.55;;;;;;;;;;5046168;28;20036;-79
2023/06/13 01:31:00;;;;;;;26.50;18.42;;;;;;;;;;5037298;28;20025;-79
2023/06/13 01:33:27;;;;;;;28.40;17.08;;;;;;;;;;5064472;28;20051;-79
2023/06/13 01:35:53;;;;;;;26.00;17.52;;;;;;;;;;5059839;28;20036;-79
2023/06/13 01:38:19;;;;;;;28.17;18.77;;;;;;;;;;5062469;28;20762;-79
2023/06/13 01:40:45;;;;;;;27.27;16.83;;;;;;;;;;5070643;28;20032;-79
2023/06/13 01:43:12;;;;;;;25.33;17.75;;;;;;;;;;5068880;28;20052;-79
2023/06/13 01:45:38;;;;;;;26.00;18.35;;;;;;;;;;5067049;28;20524;-80
2023/06/13 01:48:14;;;;;;;25.58;17.17;;;;;;;;;;5071497;28;20020;-79
2023/06/13 01:50:51;;;;;;;24.40;17.65;;;;;;;;;;5072804;28;20074;-79
2023/06/13 01:53:26;;;;;;;28.60;17.27;;;;;;;;;;5068298;28;20032;-80
2023/06/13 01:55:56;;;;;;;27.00;17.77;;;;;;;;;;5070115;28;20043;-79
2023/06/13 01:58:23;;;;;;;26.48;17.15;;;;;;;;;;5075070;28;20593;-79
2023/06/13 02:00:55;;;;;;;26.05;17.50;;;;;;;;;;5065598;28;20153;-79
2023/06/13 02:03:21;;;;;;;25.35;17.00;;;;;;;;;;5062184;28;20029;-79
2023/06/13 02:05:51;;;;;;;26.15;16.67;;;;;;;;;;5069440;28;20571;-79
2023/06/13 02:08:17;;;;;;;25.27;18.02;;;;;;;;;;5069765;28;20048;-80
2023/06/13 02:10:44;;;;;;;31.50;18.63;;;;;;;;;;5070917;28;20477;-80
2023/06/13 02:13:10;;;;;;;26.25;17.20;;;;;;;;;;5049787;28;20017;-79
2023/06/13 02:15:36;;;;;;;28.55;17.63;;;;;;;;;;5072633;28;20032;-80
2023/06/13 02:18:03;;;;;;;29.33;19.73;;;;;;;;;;5069531;28;20024;-79
2023/06/13 02:20:29;;;;;;;25.88;18.08;;;;;;;;;;5072773;28;20036;-78
2023/06/13 02:22:56;;;;;;;26.38;18.00;;;;;;;;;;5068090;28;20032;-79
2023/06/13 02:25:23;;;;;;;28.52;18.00;;;;;;;;;;5061789;28;20455;-79
2023/06/13 02:27:49;;;;;;;28.48;18.42;;;;;;;;;;5064465;28;20029;-79
2023/06/13 02:30:15;;;;;;;25.88;17.85;;;;;;;;;;5070532;28;20027;-79
2023/06/13 02:32:41;;;;;;;31.33;20.00;;;;;;;;;;5053343;28;20122;-79
2023/06/13 02:35:08;;;;;;;26.48;17.92;;;;;;;;;;5044116;28;20033;-79
2023/06/13 02:37:34;;;;;;;28.90;18.58;;;;;;;;;;5050330;28;20025;-79
2023/06/13 02:40:01;;;;;;;23.45;16.23;;;;;;;;;;5058871;28;20021;-79
2023/06/13 02:42:30;;;;;;;27.05;18.05;;;;;;;;;;5048182;28;20079;-79
2023/06/13 02:44:56;;;;;;;26.13;17.70;;;;;;;;;;5052174;28;20084;-79
2023/06/13 02:47:22;;;;;;;26.10;17.45;;;;;;;;;;5054558;28;20035;-79
2023/06/13 02:49:49;;;;;;;28.65;18.42;;;;;;;;;;5045833;28;20052;-79
2023/06/13 02:52:15;;;;;;;26.52;18.13;;;;;;;;;;5050797;28;20029;-80
2023/06/13 02:54:41;;;;;;;27.85;18.70;;;;;;;;;;5052625;28;20024;-79
2023/06/13 02:57:09;;;;;;;25.27;17.02;;;;;;;;;;5044112;28;20039;-80
2023/06/13 02:59:35;;;;;;;24.48;17.85;;;;;;;;;;5056060;28;20040;-79
2023/06/13 03:02:01;;;;;;;26.40;17.98;;;;;;;;;;5054727;28;20478;-79
2023/06/13 03:04:28;;;;;;;28.02;19.27;;;;;;;;;;5048792;28;20128;-79
2023/06/13 03:06:54;;;;;;;30.00;18.27;;;;;;;;;;5049075;28;20490;-79
2023/06/13 03:09:20;;;;;;;27.15;17.95;;;;;;;;;;5045346;28;20021;-79
2023/06/13 03:11:47;;;;;;;28.00;17.30;;;;;;;;;;5049763;28;20021;-79
2023/06/13 03:14:13;;;;;;;25.42;17.98;;;;;;;;;;5046718;28;20032;-79
2023/06/13 03:16:40;;;;;;;26.52;17.95;;;;;;;;;;5049896;28;20509;-78
2023/06/13 03:19:06;;;;;;;25.52;18.80;;;;;;;;;;5048583;28;20052;-78
2023/06/13 03:21:32;;;;;;;28.00;18.90;;;;;;;;;;5065422;28;20060;-79
2023/06/13 03:23:58;;;;;;;31.65;19.83;;;;;;;;;;5054338;28;20035;-78
2023/06/13 03:26:24;;;;;;;28.23;17.83;;;;;;;;;;5065582;28;20032;-79
2023/06/13 03:28:51;;;;;;;31.55;17.95;;;;;;;;;;5045254;28;20017;-79
2023/06/13 03:31:18;;;;;;;29.67;19.15;;;;;;;;;;5047291;28;20039;-80
2023/06/13 03:33:44;;;;;;;31.10;18.08;;;;;;;;;;5051801;28;20029;-79
2023/06/13 03:36:10;;;;;;;27.02;18.45;;;;;;;;;;5043411;28;20124;-79
2023/06/13 03:38:36;;;;;;;32.03;20.15;;;;;;;;;;5048776;28;20033;-80
2023/06/13 03:41:02;;;;;;;28.05;18.10;;;;;;;;;;5051289;28;20017;-79
2023/06/13 03:43:29;;;;;;;30.27;17.98;;;;;;;;;;5039892;28;20120;-79
2023/06/13 03:45:56;;;;;;;30.67;19.58;;;;;;;;;;5053501;28;20108;-79
2023/06/13 03:48:22;;;;;;;28.33;17.52;;;;;;;;;;5075746;28;20032;-79
2023/06/13 03:50:48;;;;;;;28.17;17.55;;;;;;;;;;5050793;28;20469;-78
2023/06/13 03:53:14;;;;;;;23.23;16.25;;;;;;;;;;5049277;28;20025;-79
2023/06/13 03:55:40;;;;;;;26.52;18.45;;;;;;;;;;5046657;28;20033;-79
2023/06/13 03:58:06;;;;;;;27.08;18.25;;;;;;;;;;5057008;28;20029;-79
2023/06/13 04:00:32;;;;;;;25.73;17.50;;;;;;;;;;5061856;28;20025;-79
2023/06/13 04:03:00;;;;;;;26.45;19.02;;;;;;;;;;5049892;28;20028;-79
2023/06/13 04:05:26;;;;;;;26.85;19.20;;;;;;;;;;5053098;28;20039;-78
2023/06/13 04:07:56;;;;;;;29.30;19.02;;;;;;;;;;5053160;28;20029;-79
2023/06/13 04:10:22;;;;;;;29.48;18.38;;;;;;;;;;5048637;28;20037;-79
2023/06/13 04:12:48;;;;;;;28.45;19.05;;;;;;;;;;5047095;28;20538;-80
2023/06/13 04:15:15;;;;;;;31.98;20.33;;;;;;;;;;5044308;28;20075;-79
2023/06/13 04:17:41;;;;;;;31.63;19.35;;;;;;;;;;5052148;28;20079;-78
2023/06/13 04:20:09;;;;;;;32.50;19.77;;;;;;;;;;5068483;28;20029;-79
2023/06/13 04:22:35;;;;;;;28.45;17.80;;;;;;;;;;5035144;28;20433;-78
2023/06/13 04:25:01;;;;;;;31.77;19.25;;;;;;;;;;5050817;28;20074;-78
2023/06/13 04:27:29;;;;;;;34.00;20.55;;;;;;;;;;5048177;28;20025;-79
2023/06/13 04:29:56;;;;;;;26.50;18.02;;;;;;;;;;5041584;28;20061;-78
2023/06/13 04:32:26;;;;;;;25.63;17.52;;;;;;;;;;5062555;28;20064;-80
2023/06/13 04:34:55;;;;;;;32.03;19.10;;;;;;;;;;5053213;28;20090;-81
2023/06/13 04:37:23;;;;;;;32.50;19.13;;;;;;;;;;5065319;28;20036;-79
2023/06/13 04:39:51;;;;;;;34.40;19.88;;;;;;;;;;5069961;28;20028;-79
2023/06/13 04:42:24;;;;;;;29.27;19.83;;;;;;;;;;5055018;28;20025;-78
2023/06/13 04:44:52;;;;;;;33.78;19.55;;;;;;;;;;5049117;28;20021;-79
2023/06/13 04:47:19;;;;;;;32.15;20.30;;;;;;;;;;5067858;28;20032;-79
2023/06/13 04:49:46;;;;;;;31.42;19.63;;;;;;;;;;5069569;28;20421;-79
2023/06/13 04:52:14;;;;;;;31.65;20.58;;;;;;;;;;5065695;28;20020;-79
2023/06/13 04:54:40;;;;;;;33.35;20.08;;;;;;;;;;5068034;28;20021;-79
2023/06/13 04:57:07;;;;;;;28.83;19.38;;;;;;;;;;5074965;28;20028;-79
2023/06/13 04:59:33;;;;;;;30.35;19.13;;;;;;;;;;5069356;28;20043;-79
2023/06/13 05:01:59;;;;;;;32.53;20.25;;;;;;;;;;5066259;28;20029;-78
2023/06/13 05:04:25;;;;;;;28.50;19.55;;;;;;;;;;5042320;28;20059;-78
2023/06/13 05:06:51;;;;;;;32.35;18.75;;;;;;;;;;5063305;28;20023;-78
2023/06/13 05:09:18;;;;;;;34.28;20.70;;;;;;;;;;5062123;28;20115;-78
2023/06/13 05:11:44;;;;;;;31.42;19.90;;;;;;;;;;5046196;28;20024;-78
2023/06/13 05:14:10;;;;;;;31.48;21.05;;;;;;;;;;5057194;28;20102;-78
2023/06/13 05:16:36;;;;;;;30.60;21.02;;;;;;;;;;5039498;28;20631;-79
2023/06/13 05:19:05;;;;;;;32.72;20.70;;;;;;;;;;5067927;28;20048;-77
2023/06/13 05:21:31;;;;;;;31.08;20.55;;;;;;;;;;5071108;28;20028;-78
2023/06/13 05:23:58;;;;;;;32.90;20.27;;;;;;;;;;5066427;28;20059;-79
2023/06/13 05:26:24;;;;;;;34.15;21.33;;;;;;;;;;5073864;28;20112;-79
2023/06/13 05:28:51;;;;;;;38.65;22.83;;;;;;;;;;5050588;28;20024;-78
2023/06/13 05:31:17;;;;;;;37.28;22.17;;;;;;;;;;5054005;28;20075;-78
2023/06/13 05:33:44;;;;;;;41.38;21.90;;;;;;;;;;5052976;28;20504;-77
2023/06/13 05:36:11;;;;;;;38.80;23.15;;;;;;;;;;5065765;28;20020;-74
2023/06/13 05:38:37;;;;;;;40.78;22.30;;;;;;;;;;5059892;28;20039;-75
2023/06/13 05:41:03;;;;;;;35.38;23.15;;;;;;;;;;5064559;28;20028;-76
2023/06/13 05:43:30;;;;;;;35.70;22.48;;;;;;;;;;5060193;28;20495;-76
2023/06/13 05:45:56;;;;;;;38.00;22.23;;;;;;;;;;5063114;28;20024;-78
2023/06/13 05:48:22;;;;;;;30.50;20.15;;;;;;;;;;5047920;28;20469;-77
2023/06/13 05:50:49;;;;;;;32.55;20.63;;;;;;;;;;5062015;28;20028;-78
2023/06/13 05:53:15;;;;;;;35.28;20.83;;;;;;;;;;5060081;28;20198;-78
2023/06/13 05:55:42;;;;;;;32.10;21.40;;;;;;;;;;5058671;28;20486;-78
2023/06/13 05:58:08;;;;;;;38.63;23.85;;;;;;;;;;5045305;28;20067;-81
2023/06/13 06:00:34;;;;;;;37.70;22.90;;;;;;;;;;5060910;28;20048;-80
2023/06/13 06:03:00;;;;;;;35.88;21.75;;;;;;;;;;5066867;28;20111;-79
2023/06/13 06:05:29;;;;;;;33.45;20.80;;;;;;;;;;5063795;28;20078;-79
2023/06/13 06:07:55;;;;;;;34.00;20.13;;;;;;;;;;5063119;28;20534;-80
2023/06/13 06:10:22;;;;;;;35.10;21.13;;;;;;;;;;5059802;28;20555;-79
2023/06/13 06:12:48;;;;;;;31.55;19.52;;;;;;;;;;5064587;28;20059;-82
2023/06/13 06:15:14;;;;;;;34.22;20.55;;;;;;;;;;5067325;28;20139;-79
2023/06/13 06:17:41;;;;;;;32.45;20.95;;;;;;;;;;5062206;28;20028;-79
2023/06/13 06:20:07;;;;;;;33.03;20.88;;;;;;;;;;5061254;28;20028;-80
2023/06/13 06:22:35;;;;;;;33.00;21.23;;;;;;;;;;5065712;28;20425;-79
2023/06/13 06:25:01;;;;;;;29.13;19.42;;;;;;;;;;5056220;28;20028;-81
2023/06/13 06:27:27;;;;;;;28.98;19.73;;;;;;;;;;5067203;28;20404;-81
2023/06/13 06:29:53;;;;;;;26.98;19.83;;;;;;;;;;5070668;28;20373;-79
2023/06/13 06:32:19;;;;;;;33.63;21.20;;;;;;;;;;5059617;28;20053;-79
2023/06/13 06:34:46;;;;;;;36.90;21.13;;;;;;;;;;5068812;28;20020;-79
2023/06/13 06:37:13;;;;;;;30.75;19.67;;;;;;;;;;5062421;28;20028;-78
2023/06/13 06:39:39;;;;;;;34.90;22.13;;;;;;;;;;5062806;28;20024;-79
2023/06/13 06:42:05;;;;;;;29.45;19.15;;;;;;;;;;5070001;28;20037;-83
2023/06/13 06:44:31;;;;;;;32.85;21.83;;;;;;;;;;5068466;28;20074;-79
2023/06/13 06:46:57;;;;;;;38.20;21.27;;;;;;;;;;5064045;28;20202;-77
2023/06/13 06:49:24;;;;;;;31.08;20.17;;;;;;;;;;5071028;28;20044;-78
2023/06/13 06:51:50;;;;;;;31.77;20.48;;;;;;;;;;5045382;28;20170;-78
2023/06/13 06:54:16;;;;;;;37.67;25.00;;;;;;;;;;5068444;28;20021;-78
2023/06/13 06:56:42;;;;;;;34.83;23.17;;;;;;;;;;5039237;28;20036;-78
2023/06/13 06:59:08;;;;;;;48.35;29.73;;;;;;;;;;5050027;28;20099;-80
2023/06/13 07:01:35;;;;;;;55.95;31.98;;;;;;;;;;5062975;28;20039;-80
2023/06/13 07:04:02;;;;;;;32.15;20.85;;;;;;;;;;5076224;28;20453;-78
2023/06/13 07:06:30;;;;;;;55.28;32.72;;;;;;;;;;5055338;28;20031;-78
2023/06/13 07:08:56;;;;;;;42.88;26.83;;;;;;;;;;5070281;28;20115;-78
2023/06/13 07:11:22;;;;;;;34.42;22.67;;;;;;;;;;5070833;28;20040;-79
2023/06/13 07:13:49;;;;;;;43.53;23.67;;;;;;;;;;5068006;28;20473;-79
2023/06/13 07:16:15;;;;;;;33.53;21.73;;;;;;;;;;5053127;28;20062;-79
2023/06/13 07:18:42;;;;;;;33.22;21.80;;;;;;;;;;5067679;28;20064;-79
2023/06/13 07:21:08;;;;;;;31.30;21.23;;;;;;;;;;5067745;28;20036;-79
2023/06/13 07:23:34;;;;;;;37.70;24.85;;;;;;;;;;5082601;28;20024;-79
2023/06/13 07:26:00;;;;;;;36.15;21.75;;;;;;;;;;5070901;28;20028;-79
2023/06/13 07:28:26;;;;;;;39.17;27.33;;;;;;;;;;5071708;28;20032;-79
2023/06/13 07:30:52;;;;;;;54.50;41.72;;;;;;;;;;5071108;28;20013;-79
2023/06/13 07:33:19;;;;;;;74.05;60.65;;;;;;;;;;5070982;28;20032;-79
2023/06/13 07:35:47;;;;;;;85.88;75.32;;;;;;;;;;5074455;28;20054;-79
2023/06/13 07:38:13;;;;;;;45.35;31.38;;;;;;;;;;5074834;28;20374;-79
2023/06/13 07:40:39;;;;;;;46.42;31.95;;;;;;;;;;5070321;28;20035;-78
2023/06/13 07:43:05;;;;;;;34.65;22.17;;;;;;;;;;5072722;28;20036;-79
2023/06/13 07:45:31;;;;;;;37.42;26.23;;;;;;;;;;5071529;28;20365;-79
2023/06/13 07:47:58;;;;;;;39.38;24.63;;;;;;;;;;5067076;28;20028;-79
2023/06/13 07:50:24;;;;;;;35.35;21.52;;;;;;;;;;5069535;28;20085;-79
2023/06/13 07:52:50;;;;;;;31.98;22.75;;;;;;;;;;5072899;28;20085;-80
2023/06/13 07:55:16;;;;;;;29.05;22.23;;;;;;;;;;5070018;28;20036;-80
2023/06/13 07:57:43;;;;;;;33.40;21.95;;;;;;;;;;5072501;28;20040;-81
2023/06/13 08:00:16;;;;;;;28.98;22.00;;;;;;;;;;5055591;28;20056;-82
2023/06/13 08:02:42;;;;;;;30.13;19.67;;;;;;;;;;5073100;28;20023;-82
2023/06/13 08:05:08;;;;;;;27.75;19.30;;;;;;;;;;5070135;28;20033;-78
2023/06/13 08:07:34;;;;;;;27.98;19.95;;;;;;;;;;5050592;28;20378;-80
2023/06/13 08:10:00;;;;;;;29.88;19.15;;;;;;;;;;5069844;28;20040;-82
2023/06/13 08:12:26;;;;;;;30.50;19.27;;;;;;;;;;5073410;28;20075;-81
2023/06/13 08:14:52;;;;;;;27.60;19.65;;;;;;;;;;5069559;28;20048;-81
2023/06/13 08:17:18;;;;;;;28.67;20.10;;;;;;;;;;5073607;28;20028;-82
2023/06/13 08:19:48;;;;;;;25.95;19.08;;;;;;;;;;5073228;28;20032;-81
2023/06/13 08:22:15;;;;;;;26.75;18.27;;;;;;;;;;5068146;28;20489;-83
2023/06/13 08:24:41;;;;;;;26.45;18.95;;;;;;;;;;5075965;28;20031;-79
2023/06/13 08:27:07;;;;;;;29.95;20.02;;;;;;;;;;5065615;28;20028;-79
2023/06/13 08:29:34;;;;;;;26.00;18.40;;;;;;;;;;5063569;28;20366;-79
2023/06/13 08:32:00;;;;;;;26.95;19.48;;;;;;;;;;5061280;28;20055;-79
2023/06/13 08:34:26;;;;;;;24.13;17.00;;;;;;;;;;5065547;28;20021;-79
2023/06/13 08:36:53;;;;;;;21.33;16.70;;;;;;;;;;5062521;28;20123;-79
2023/06/13 08:39:20;;;;;;;26.10;16.55;;;;;;;;;;5048425;28;20060;-78
2023/06/13 08:41:46;;;;;;;23.65;16.05;;;;;;;;;;5063737;28;20025;-79
2023/06/13 08:44:12;;;;;;;18.42;14.93;;;;;;;;;;5072261;28;20043;-79
2023/06/13 08:46:39;;;;;;;18.25;14.85;;;;;;;;;;5066135;28;20032;-79
2023/06/13 08:49:05;;;;;;;20.73;15.55;;;;;;;;;;5063039;28;20031;-78
2023/06/13 08:51:32;;;;;;;19.58;15.35;;;;;;;;;;5062418;28;20040;-78
2023/06/13 08:54:05;;;;;;;19.95;15.93;;;;;;;;;;5045655;28;20596;-78
2023/06/13 08:56:35;;;;;;;22.23;15.90;;;;;;;;;;5069114;28;20396;-78
2023/06/13 08:59:20;;;;;;;22.23;16.83;;;;;;;;;;5068521;28;20024;-78
2023/06/13 09:01:47;;;;;;;19.88;16.35;;;;;;;;;;5058461;28;20092;-79
2023/06/13 09:04:13;;;;;;;28.85;18.15;;;;;;;;;;5066215;28;20036;-78
2023/06/13 09:06:40;;;;;;;25.55;16.50;;;;;;;;;;5063363;28;20410;-78
2023/06/13 09:09:06;;;;;;;20.98;16.23;;;;;;;;;;5056853;28;20338;-78
2023/06/13 09:11:34;;;;;;;20.40;15.65;;;;;;;;;;5071135;28;20027;-78
2023/06/13 09:14:01;;;;;;;21.25;16.17;;;;;;;;;;5041933;28;20124;-78
2023/06/13 09:16:27;;;;;;;19.85;16.15;;;;;;;;;;5068290;28;20036;-79
2023/06/13 09:18:54;;;;;;;21.45;16.02;;;;;;;;;;5059565;28;20028;-78
2023/06/13 09:21:20;;;;;;;21.35;15.50;;;;;;;;;;5063060;28;20041;-80
2023/06/13 09:23:50;;;;;;;20.63;15.30;;;;;;;;;;5060681;28;20556;-78
2023/06/13 09:26:17;;;;;;;30.75;15.98;;;;;;;;;;5044544;28;20033;-78
2023/06/13 09:28:45;;;;;;;17.23;13.18;;;;;;;;;;5068233;28;20025;-77
2023/06/13 09:31:11;;;;;;;17.80;13.20;;;;;;;;;;5054894;28;20053;-78
2023/06/13 09:33:38;;;;;;;17.77;12.77;;;;;;;;;;5046456;28;20021;-79
2023/06/13 09:36:09;;;;;;;19.65;13.57;;;;;;;;;;5047632;28;20017;-79
2023/06/13 09:38:37;;;;;;;15.40;11.93;;;;;;;;;;5041439;28;20036;-79
2023/06/13 09:41:04;;;;;;;15.85;10.23;;;;;;;;;;5045103;28;20038;-81
2023/06/13 09:43:31;;;;;;;14.70;10.77;;;;;;;;;;5058480;28;20033;-79
2023/06/13 09:45:57;;;;;;;11.57;8.43;;;;;;;;;;5049997;28;20071;-80
2023/06/13 09:48:24;;;;;;;9.85;8.05;;;;;;;;;;5058067;28;20159;-78
2023/06/13 09:50:50;;;;;;;8.23;6.75;;;;;;;;;;5041833;28;20429;-78
2023/06/13 09:53:16;;;;;;;10.07;7.75;;;;;;;;;;5063217;28;20086;-78
2023/06/13 09:55:42;;;;;;;10.27;7.72;;;;;;;;;;5063186;28;20583;-79
2023/06/13 09:58:09;;;;;;;11.10;7.75;;;;;;;;;;5063120;28;20506;-79
2023/06/13 10:00:35;;;;;;;9.73;7.47;;;;;;;;;;5051324;28;20587;-78
2023/06/13 10:03:02;;;;;;;12.25;8.30;;;;;;;;;;5037332;28;20104;-79
2023/06/13 10:05:28;;;;;;;8.38;7.47;;;;;;;;;;5038913;28;20108;-81
2023/06/13 10:07:56;;;;;;;8.98;7.18;;;;;;;;;;5044835;28;20026;-78
2023/06/13 10:10:22;;;;;;;9.63;7.53;;;;;;;;;;5052504;28;20049;-78
2023/06/13 10:12:49;;;;;;;7.63;6.82;;;;;;;;;;5047752;28;20025;-78
2023/06/13 10:15:20;;;;;;;9.13;8.05;;;;;;;;;;5048703;28;20029;-78
2023/06/13 10:17:47;;;;;;;8.13;7.20;;;;;;;;;;5050967;28;20033;-79
2023/06/13 10:20:16;;;;;;;7.93;6.65;;;;;;;;;;5048060;28;20120;-78
2023/06/13 10:22:42;;;;;;;8.38;7.03;;;;;;;;;;5050550;28;20028;-78
2023/06/13 10:25:09;;;;;;;9.68;7.25;;;;;;;;;;5063012;28;20210;-79
2023/06/13 10:27:37;;;;;;;9.48;6.82;;;;;;;;;;5059954;28;20021;-78
2023/06/13 10:30:22;;;;;;;8.10;6.82;;;;;;;;;;5063055;28;20025;-78
2023/06/13 10:33:00;;;;;;;9.15;6.95;;;;;;;;;;5063704;28;20075;-78
2023/06/13 10:35:38;;;;;;;8.43;6.80;;;;;;;;;;5066763;28;20054;-78
2023/06/13 10:38:08;;;;;;;8.25;6.95;;;;;;;;;;5071121;28;20047;-79
2023/06/13 10:40:34;;;;;;;7.25;6.15;;;;;;;;;;5064100;28;20477;-79
2023/06/13 10:43:03;;;;;;;8.35;6.15;;;;;;;;;;5065673;28;20025;-80
2023/06/13 10:45:30;;;;;;;6.80;6.07;;;;;;;;;;5066488;28;20021;-79
2023/06/13 10:47:59;;;;;;;7.18;6.00;;;;;;;;;;5070764;28;20036;-79
2023/06/13 10:50:26;;;;;;;13.20;6.53;;;;;;;;;;5051874;28;20016;-80
2023/06/13 10:52:56;;;;;;;9.27;6.63;;;;;;;;;;5064165;28;20036;-78
2023/06/13 10:55:23;;;;;;;7.40;6.68;;;;;;;;;;5064994;28;20035;-78
2023/06/13 10:57:52;;;;;;;8.10;6.47;;;;;;;;;;5060682;28;20024;-79
2023/06/13 11:00:24;;;;;;;8.18;6.60;;;;;;;;;;5069595;28;20036;-78
2023/06/13 11:02:57;;;;;;;9.00;7.32;;;;;;;;;;5064030;28;20473;-78
2023/06/13 11:05:23;;;;;;;9.20;6.78;;;;;;;;;;5065519;28;20493;-78
2023/06/13 11:07:49;;;;;;;8.20;7.10;;;;;;;;;;5060113;28;20021;-77
2023/06/13 11:10:17;;;;;;;9.27;7.60;;;;;;;;;;5064141;28;20028;-78
2023/06/13 11:12:44;;;;;;;8.70;7.45;;;;;;;;;;5065806;28;20027;-82
2023/06/13 11:15:23;;;;;;;8.73;7.03;;;;;;;;;;5063017;28;20031;-77
2023/06/13 11:18:08;;;;;;;8.75;7.75;;;;;;;;;;5065228;28;20024;-77
2023/06/13 11:20:47;;;;;;;8.93;7.95;;;;;;;;;;5044427;28;20021;-77
2023/06/13 11:23:14;;;;;;;9.02;7.13;;;;;;;;;;5062764;28;20033;-77
2023/06/13 11:25:40;;;;;;;12.88;8.20;;;;;;;;;;5039793;28;20106;-79
2023/06/13 11:28:06;;;;;;;8.32;7.45;;;;;;;;;;5066919;28;20032;-78
2023/06/13 11:30:32;;;;;;;8.98;6.90;;;;;;;;;;5062363;28;20035;-77
2023/06/13 11:33:00;;;;;;;7.47;6.18;;;;;;;;;;5063208;28;20055;-78
2023/06/13 11:35:26;;;;;;;7.50;6.68;;;;;;;;;;5049677;28;20039;-78
2023/06/13 11:37:56;;;;;;;8.85;7.07;;;;;;;;;;5064266;28;20123;-77
2023/06/13 11:40:33;;;;;;;8.15;7.35;;;;;;;;;;5069394;28;20618;-80
2023/06/13 11:42:59;;;;;;;7.75;6.57;;;;;;;;;;5067350;28;20374;-82
2023/06/13 11:45:26;;;;;;;9.70;6.97;;;;;;;;;;5076864;28;20032;-81
2023/06/13 11:48:01;;;;;;;9.00;7.40;;;;;;;;;;5058106;28;20033;-80
2023/06/13 11:50:28;;;;;;;7.55;6.80;;;;;;;;;;5062904;28;20032;-88
2023/06/13 11:53:06;;;;;;;8.82;7.15;;;;;;;;;;5049019;28;20066;-80
2023/06/13 11:55:33;;;;;;;6.72;6.03;;;;;;;;;;5059817;28;20460;-78
2023/06/13 11:57:59;;;;;;;6.95;6.25;;;;;;;;;;5064575;28;20455;-78
2023/06/13 12:00:26;;;;;;;9.10;7.57;;;;;;;;;;5045574;28;20029;-79
2023/06/13 12:02:56;;;;;;;9.55;7.55;;;;;;;;;;5045613;28;20690;-77
2023/06/13 12:05:22;;;;;;;8.65;7.75;;;;;;;;;;5043422;28;20054;-78
2023/06/13 12:07:50;;;;;;;7.50;6.68;;;;;;;;;;5060367;28;20033;-78
2023/06/13 12:10:17;;;;;;;7.45;6.63;;;;;;;;;;5068046;28;20073;-79
2023/06/13 12:12:43;;;;;;;7.88;7.07;;;;;;;;;;5038378;28;20548;-78
2023/06/13 12:15:13;;;;;;;8.15;7.10;;;;;;;;;;5045257;28;20717;-78
2023/06/13 12:18:02;;;;;;;8.82;6.88;;;;;;;;;;5065123;28;20032;-78
2023/06/13 12:20:29;;;;;;;8.90;8.00;;;;;;;;;;5066754;28;20033;-79
2023/06/13 12:22:59;;;;;;;11.07;7.10;;;;;;;;;;5067687;28;20024;-79
2023/06/13 12:25:27;;;;;;;9.05;7.50;;;;;;;;;;5066350;28;20085;-79
2023/06/13 12:27:55;;;;;;;7.32;6.60;;;;;;;;;;5061147;28;20028;-80
2023/06/13 12:30:21;;;;;;;9.18;6.85;;;;;;;;;;5064396;28;20059;-79
2023/06/13 12:32:48;;;;;;;8.80;7.28;;;;;;;;;;5062406;28;20496;-81
2023/06/13 12:35:20;;;;;;;7.97;6.78;;;;;;;;;;5048268;28;20025;-79
2023/06/13 12:38:00;;;;;;;8.10;7.30;;;;;;;;;;5043613;28;20381;-78
2023/06/13 12:40:35;;;;;;;8.07;7.28;;;;;;;;;;5058917;28;20999;-79
2023/06/13 12:43:02;;;;;;;7.35;6.65;;;;;;;;;;5046355;28;20036;-81
2023/06/13 12:45:29;;;;;;;17.23;8.30;;;;;;;;;;5044503;28;20036;-79
2023/06/13 12:47:56;;;;;;;7.60;6.80;;;;;;;;;;5045765;28;20025;-78
2023/06/13 12:50:26;;;;;;;9.45;7.07;;;;;;;;;;5049519;28;20020;-79
2023/06/13 12:53:08;;;;;;;9.52;6.70;;;;;;;;;;5040193;28;20020;-80
2023/06/13 12:55:35;;;;;;;7.95;6.65;;;;;;;;;;5061337;28;20174;-79
2023/06/13 12:58:20;;;;;;;6.82;6.00;;;;;;;;;;5059103;28;20418;-80
2023/06/13 13:00:47;;;;;;;8.00;6.60;;;;;;;;;;5060020;28;20048;-79
2023/06/13 13:03:13;;;;;;;9.75;6.70;;;;;;;;;;5032417;28;20047;-80
2023/06/13 13:05:39;;;;;;;7.65;6.45;;;;;;;;;;5040844;28;20021;-78
2023/06/13 13:08:07;;;;;;;7.63;6.60;;;;;;;;;;5067307;28;20051;-78
2023/06/13 13:10:34;;;;;;;7.13;6.43;;;;;;;;;;5040881;28;20024;-79
2023/06/13 13:13:00;;;;;;;8.75;6.53;;;;;;;;;;5051796;28;20449;-79
2023/06/13 13:15:26;;;;;;;7.60;6.90;;;;;;;;;;5057387;28;20082;-79
2023/06/13 13:17:52;;;;;;;7.78;6.97;;;;;;;;;;5057872;28;20039;-78
2023/06/13 13:20:18;;;;;;;6.78;6.07;;;;;;;;;;5043064;28;20028;-79
2023/06/13 13:22:44;;;;;;;7.38;5.95;;;;;;;;;;5037946;28;20470;-79
2023/06/13 13:25:10;;;;;;;7.28;6.20;;;;;;;;;;5058222;28;20080;-79
2023/06/13 13:27:36;;;;;;;6.60;5.90;;;;;;;;;;5037075;28;20024;-79
2023/06/13 13:30:03;;;;;;;6.88;6.20;;;;;;;;;;5040185;28;20482;-79
2023/06/13 13:32:29;;;;;;;6.93;5.80;;;;;;;;;;5058544;28;20466;-79
2023/06/13 13:34:55;;;;;;;6.80;5.60;;;;;;;;;;5040123;28;20086;-79
2023/06/13 13:37:21;;;;;;;6.97;5.55;;;;;;;;;;5038484;28;20472;-79
2023/06/13 13:39:48;;;;;;;7.80;6.03;;;;;;;;;;5041127;28;20029;-79
2023/06/13 13:42:14;;;;;;;6.80;5.50;;;;;;;;;;5062866;28;20040;-79
2023/06/13 13:44:40;;;;;;;8.40;5.90;;;;;;;;;;5042916;28;20025;-79
2023/06/13 13:47:06;;;;;;;8.85;5.88;;;;;;;;;;5056397;28;20474;-79
2023/06/13 13:49:33;;;;;;;6.28;5.53;;;;;;;;;;5050618;28;20114;-79
2023/06/13 13:51:59;;;;;;;6.65;5.65;;;;;;;;;;5062485;28;20124;-79
2023/06/13 13:54:25;;;;;;;6.47;5.25;;;;;;;;;;5035826;28;20092;-79
2023/06/13 13:56:52;;;;;;;6.38;5.22;;;;;;;;;;5047863;28;20481;-79
2023/06/13 13:59:18;;;;;;;6.25;5.65;;;;;;;;;;5040079;28;20504;-79
2023/06/13 14:01:44;;;;;;;7.45;5.80;;;;;;;;;;5064597;28;20021;-80
2023/06/13 14:04:13;;;;;;;9.45;5.53;;;;;;;;;;5046785;28;20048;-79
2023/06/13 14:06:40;;;;;;;6.10;5.18;;;;;;;;;;5062252;28;20131;-79
2023/06/13 14:09:09;;;;;;;5.97;5.13;;;;;;;;;;5048986;28;20645;-79
2023/06/13 14:11:36;;;;;;;5.93;5.32;;;;;;;;;;5046427;28;20462;-79
2023/06/13 14:14:02;;;;;;;6.57;5.80;;;;;;;;;;5055264;28;20055;-79
2023/06/13 14:16:28;;;;;;;7.85;5.55;;;;;;;;;;5041054;28;20048;-79
2023/06/13 14:18:57;;;;;;;7.90;5.43;;;;;;;;;;5046954;28;20040;-78
2023/06/13 14:21:23;;;;;;;9.27;6.18;;;;;;;;;;5042264;28;20025;-79
2023/06/13 14:23:49;;;;;;;5.85;5.15;;;;;;;;;;5037692;28;20032;-79
2023/06/13 14:26:15;;;;;;;6.68;5.93;;;;;;;;;;5057953;28;20044;-79
2023/06/13 14:28:42;;;;;;;5.80;5.20;;;;;;;;;;5046742;28;20477;-79